Time;durP1;ratioP1;P1;durP2;ratioP2;P2;SDS_P1;SDS_P2;PMS_P1;PMS_P2;Temp;Humidity;BMP_temperature;BMP_pressure;BME280_temperature;BME280_humidity;BME280_pressure;Samples;Min_cycle;Max_cycle;Signal;HPM_P1;HPM_P2
2021/04/18 00:01:47;;;;;;;11.07;5.18;;;5.80;99.90;;;;;;5051837;28;20185;-69
2021/04/18 00:04:14;;;;;;;10.23;7.30;;;5.70;99.90;;;;;;5051137;28;20181;-68
2021/04/18 00:06:42;;;;;;;20.60;8.10;;;5.70;99.90;;;;;;5051761;28;20181;-70
2021/04/18 00:09:11;;;;;;;7.53;6.65;;;5.70;99.90;;;;;;5051520;28;20189;-68
2021/04/18 00:11:38;;;;;;;10.30;6.15;;;5.70;99.90;;;;;;5051775;28;20566;-69
2021/04/18 00:14:06;;;;;;;8.95;7.38;;;5.70;99.90;;;;;;5051724;28;20200;-69
2021/04/18 00:16:35;;;;;;;12.35;6.85;;;5.70;99.90;;;;;;5051720;28;20195;-69
2021/04/18 00:19:03;;;;;;;14.30;6.07;;;5.70;99.90;;;;;;5051355;28;20209;-69
2021/04/18 00:21:30;;;;;;;8.25;7.45;;;5.70;99.90;;;;;;5044493;22;20237;-65
2021/04/18 00:23:57;;;;;;;15.50;6.47;;;5.70;99.90;;;;;;5032529;28;20177;-66
2021/04/18 00:26:25;;;;;;;10.30;7.13;;;5.70;99.90;;;;;;5032787;28;20185;-66
2021/04/18 00:28:54;;;;;;;12.57;7.43;;;5.70;99.90;;;;;;5032429;28;20244;-66
2021/04/18 00:31:21;;;;;;;13.20;6.40;;;5.70;99.90;;;;;;5032385;28;20238;-67
2021/04/18 00:33:49;;;;;;;10.50;7.85;;;5.70;99.90;;;;;;5032171;28;20189;-66
2021/04/18 00:36:28;;;;;;;12.48;7.10;;;5.60;99.90;;;;;;5032406;28;20170;-65
2021/04/18 00:38:55;;;;;;;9.30;6.88;;;5.60;99.90;;;;;;5031846;28;20212;-66
2021/04/18 00:41:22;;;;;;;10.25;7.65;;;5.60;99.90;;;;;;5032300;28;20236;-65
2021/04/18 00:43:49;;;;;;;11.82;6.75;;;5.60;99.90;;;;;;5032221;28;20216;-66
2021/04/18 00:46:16;;;;;;;13.05;7.03;;;5.50;99.90;;;;;;5030739;28;20200;-66
2021/04/18 00:48:44;;;;;;;26.25;6.47;;;5.50;99.90;;;;;;5032627;28;20300;-65
2021/04/18 00:51:14;;;;;;;12.07;5.95;;;5.50;99.90;;;;;;5032347;28;20178;-66
2021/04/18 00:53:42;;;;;;;8.73;6.18;;;5.60;99.90;;;;;;5032385;28;20277;-66
2021/04/18 00:56:10;;;;;;;15.35;7.38;;;5.60;99.90;;;;;;5032457;28;20189;-66
2021/04/18 00:58:38;;;;;;;11.05;7.43;;;5.60;99.90;;;;;;5032263;28;20300;-65
2021/04/18 01:01:07;;;;;;;11.20;7.15;;;5.50;99.90;;;;;;5031939;28;20170;-66
2021/04/18 01:03:36;;;;;;;9.82;6.50;;;5.50;99.90;;;;;;5030547;28;20181;-66
2021/04/18 01:06:05;;;;;;;21.35;8.20;;;5.50;99.90;;;;;;5032461;28;20211;-65
2021/04/18 01:08:41;;;;;;;11.80;7.25;;;5.50;99.90;;;;;;5032236;28;20630;-66
2021/04/18 01:11:09;;;;;;;14.73;7.55;;;5.50;99.90;;;;;;5031271;28;20189;-66
2021/04/18 01:13:36;;;;;;;8.88;7.10;;;5.60;99.90;;;;;;5032676;28;20185;-66
2021/04/18 01:16:05;;;;;;;14.75;7.93;;;5.60;99.90;;;;;;5032598;28;20674;-65
2021/04/18 01:18:33;;;;;;;12.73;7.32;;;5.60;99.90;;;;;;5035148;28;20212;-67
2021/04/18 01:21:09;;;;;;;12.52;8.10;;;5.60;99.90;;;;;;5033605;28;20640;-67
2021/04/18 01:23:54;;;;;;;10.00;8.85;;;5.60;99.90;;;;;;5034348;28;20195;-66
2021/04/18 01:26:47;;;;;;;12.82;9.35;;;5.70;99.90;;;;;;5030613;28;20705;-66
2021/04/18 01:29:14;;;;;;;15.00;8.57;;;5.70;99.90;;;;;;5033635;28;20208;-67
2021/04/18 01:31:42;;;;;;;8.32;7.13;;;5.70;99.90;;;;;;5033043;28;20272;-66
2021/04/18 01:34:12;;;;;;;14.07;9.13;;;5.80;99.90;;;;;;5033399;28;20539;-67
2021/04/18 01:36:42;;;;;;;20.60;10.60;;;5.80;99.90;;;;;;5034608;28;20185;-66
2021/04/18 01:39:09;;;;;;;16.48;10.77;;;5.80;99.90;;;;;;5038808;28;20185;-66
2021/04/18 01:41:37;;;;;;;19.35;11.90;;;5.80;99.90;;;;;;5037190;28;20199;-66
2021/04/18 01:44:05;;;;;;;14.90;10.63;;;5.90;99.90;;;;;;5052662;28;20590;-66
2021/04/18 01:46:33;;;;;;;18.38;10.10;;;5.90;99.90;;;;;;5034589;28;20689;-66
2021/04/18 01:49:00;;;;;;;16.25;9.18;;;5.90;99.90;;;;;;5034880;28;20205;-65
2021/04/18 01:51:28;;;;;;;26.35;15.23;;;5.90;99.90;;;;;;5035030;28;20239;-68
2021/04/18 01:53:56;;;;;;;25.20;14.20;;;5.90;99.90;;;;;;5035612;28;20185;-67
2021/04/18 01:56:24;;;;;;;15.02;11.20;;;5.90;99.90;;;;;;5035027;28;20263;-65
2021/04/18 01:58:53;;;;;;;16.70;9.30;;;5.90;99.90;;;;;;5034388;28;20296;-66
2021/04/18 02:01:29;;;;;;;16.63;8.43;;;5.90;99.90;;;;;;5051428;28;20189;-67
2021/04/18 02:03:59;;;;;;;13.63;8.95;;;5.90;99.90;;;;;;5051956;28;20197;-66
2021/04/18 02:06:28;;;;;;;15.07;7.82;;;5.90;99.90;;;;;;5033360;28;20193;-66
2021/04/18 02:09:06;;;;;;;13.02;9.10;;;5.90;99.90;;;;;;5033492;28;20196;-66
2021/04/18 02:11:36;;;;;;;17.70;9.32;;;5.80;99.90;;;;;;5031531;28;20198;-66
2021/04/18 02:14:07;;;;;;;16.70;11.82;;;5.80;99.90;;;;;;5032285;28;20190;-65
2021/04/18 02:16:42;;;;;;;13.70;9.80;;;5.80;99.90;;;;;;5032837;28;20217;-65
2021/04/18 02:19:14;;;;;;;17.38;11.25;;;5.80;99.90;;;;;;5050335;28;20193;-68
2021/04/18 02:21:43;;;;;;;15.80;13.73;;;5.70;99.90;;;;;;5034997;28;20669;-66
2021/04/18 02:24:13;;;;;;;19.25;12.65;;;5.70;99.90;;;;;;5050263;28;20212;-66
2021/04/18 02:26:40;;;;;;;20.55;11.32;;;5.60;99.90;;;;;;5034780;28;20200;-66
2021/04/18 02:29:10;;;;;;;12.80;9.38;;;5.60;99.90;;;;;;5039414;28;20300;-66
2021/04/18 02:31:52;;;;;;;23.75;13.00;;;5.50;99.90;;;;;;5036576;28;20264;-66
2021/04/18 02:34:19;;;;;;;23.55;12.68;;;5.60;99.90;;;;;;5034746;28;20173;-65
2021/04/18 02:36:46;;;;;;;27.10;12.30;;;5.60;99.90;;;;;;5034385;28;20196;-67
2021/04/18 02:39:15;;;;;;;22.73;14.15;;;5.60;99.90;;;;;;5032874;28;20193;-67
2021/04/18 02:41:42;;;;;;;23.48;14.70;;;5.50;99.90;;;;;;5034819;28;20535;-66
2021/04/18 02:44:13;;;;;;;19.70;13.40;;;5.60;99.90;;;;;;5033202;28;20232;-65
2021/04/18 02:46:42;;;;;;;24.50;14.20;;;5.40;99.90;;;;;;5033081;28;20588;-67
2021/04/18 02:49:12;;;;;;;27.25;14.23;;;5.40;99.90;;;;;;5034650;28;20232;-66
2021/04/18 02:51:40;;;;;;;31.02;13.27;;;5.50;99.90;;;;;;5033252;28;20186;-67
2021/04/18 02:54:09;;;;;;;25.00;11.13;;;5.40;99.90;;;;;;5033418;28;20280;-66
2021/04/18 02:56:39;;;;;;;23.73;13.95;;;5.30;99.90;;;;;;5033152;28;20251;-65
2021/04/18 02:59:09;;;;;;;26.85;16.35;;;5.40;99.90;;;;;;5034640;28;20177;-65
2021/04/18 03:01:37;;;;;;;26.70;13.65;;;5.30;99.90;;;;;;5032876;28;20198;-67
2021/04/18 03:04:06;;;;;;;22.13;13.43;;;5.30;99.90;;;;;;5032601;28;20204;-65
2021/04/18 03:06:34;;;;;;;18.95;13.18;;;5.30;99.90;;;;;;5032642;28;20560;-65
2021/04/18 03:09:03;;;;;;;29.33;15.60;;;5.30;99.90;;;;;;5032658;28;20304;-65
2021/04/18 03:11:30;;;;;;;34.17;16.05;;;5.40;99.90;;;;;;5032704;28;20197;-66
2021/04/18 03:14:05;;;;;;;33.42;14.23;;;5.40;99.90;;;;;;5032504;28;20250;-67
2021/04/18 03:16:33;;;;;;;30.73;17.23;;;5.40;99.90;;;;;;5034102;28;20189;-65
2021/04/18 03:19:02;;;;;;;30.27;15.65;;;5.40;99.90;;;;;;5033735;28;20736;-65
2021/04/18 03:21:30;;;;;;;31.75;15.73;;;5.40;99.90;;;;;;5032551;28;20201;-66
2021/04/18 03:23:58;;;;;;;32.78;18.90;;;5.30;99.90;;;;;;5049526;28;20193;-66
2021/04/18 03:26:25;;;;;;;33.03;15.57;;;5.30;99.90;;;;;;5033726;28;20197;-66
2021/04/18 03:28:57;;;;;;;40.25;19.00;;;5.40;99.90;;;;;;5031852;28;20217;-66
2021/04/18 03:31:26;;;;;;;36.97;15.20;;;5.40;99.90;;;;;;5032097;28;20201;-66
2021/04/18 03:33:58;;;;;;;24.38;14.23;;;5.40;99.90;;;;;;5033172;28;20169;-66
2021/04/18 03:36:27;;;;;;;33.75;19.25;;;5.40;99.90;;;;;;5032152;28;20277;-66
2021/04/18 03:39:04;;;;;;;27.08;17.08;;;5.40;99.90;;;;;;5047718;28;20705;-67
2021/04/18 03:41:33;;;;;;;35.28;17.33;;;5.50;99.90;;;;;;5033418;28;20178;-66
2021/04/18 03:44:01;;;;;;;29.48;17.33;;;5.40;99.90;;;;;;5031911;28;20189;-67
2021/04/18 03:46:31;;;;;;;29.88;16.35;;;5.50;99.90;;;;;;5031751;28;20646;-65
2021/04/18 03:49:00;;;;;;;22.85;13.93;;;5.50;99.90;;;;;;5048379;28;20226;-65
2021/04/18 03:51:49;;;;;;;31.65;16.98;;;5.60;99.90;;;;;;5031704;28;20197;-66
2021/04/18 03:54:19;;;;;;;31.90;16.38;;;5.50;99.90;;;;;;5032992;28;20169;-65
2021/04/18 03:56:47;;;;;;;34.70;18.58;;;5.50;99.90;;;;;;5031821;28;20249;-65
2021/04/18 03:59:14;;;;;;;33.13;18.95;;;5.40;99.90;;;;;;5031576;28;20224;-64
2021/04/18 04:01:43;;;;;;;52.35;19.17;;;5.30;99.90;;;;;;5031883;28;20194;-64
2021/04/18 04:04:14;;;;;;;26.60;17.55;;;5.40;99.90;;;;;;5048515;28;20292;-64
2021/04/18 04:06:43;;;;;;;42.20;14.05;;;5.40;99.90;;;;;;5033114;28;20256;-65
2021/04/18 04:09:10;;;;;;;27.35;17.63;;;5.30;99.90;;;;;;5033246;28;20632;-66
2021/04/18 04:11:38;;;;;;;29.60;14.13;;;5.20;99.90;;;;;;5032976;28;20197;-66
2021/04/18 04:14:09;;;;;;;35.42;17.48;;;5.20;99.90;;;;;;5031738;28;20256;-66
2021/04/18 04:16:44;;;;;;;39.08;15.48;;;5.20;99.90;;;;;;5031542;28;20202;-66
2021/04/18 04:19:14;;;;;;;27.00;14.50;;;5.20;99.90;;;;;;5032771;28;20238;-66
2021/04/18 04:22:08;;;;;;;38.83;17.98;;;5.20;99.90;;;;;;5009412;28;20224;-67
2021/04/18 04:24:51;;;;;;;29.65;14.60;;;5.30;99.90;;;;;;5033291;28;20642;-67
2021/04/18 04:27:19;;;;;;;28.27;16.23;;;5.30;99.90;;;;;;5032307;28;20208;-67
2021/04/18 04:29:46;;;;;;;22.83;16.15;;;5.40;99.90;;;;;;5032607;28;20240;-67
2021/04/18 04:32:15;;;;;;;44.90;17.42;;;5.40;99.90;;;;;;5032479;28;20200;-66
2021/04/18 04:34:42;;;;;;;32.78;17.20;;;5.50;99.90;;;;;;5030907;28;20201;-66
2021/04/18 04:37:09;;;;;;;32.15;16.85;;;5.50;99.90;;;;;;5032132;28;20220;-66
2021/04/18 04:39:37;;;;;;;32.03;19.15;;;5.70;99.90;;;;;;5030781;28;20181;-66
2021/04/18 04:42:05;;;;;;;26.67;14.25;;;5.60;99.90;;;;;;5032206;28;20197;-66
2021/04/18 04:44:32;;;;;;;30.83;14.98;;;5.60;99.90;;;;;;5031960;28;20300;-66
2021/04/18 04:46:59;;;;;;;27.15;15.50;;;5.60;99.90;;;;;;5035209;28;20215;-66
2021/04/18 04:49:28;;;;;;;29.73;16.33;;;5.60;99.90;;;;;;5035480;28;20198;-67
2021/04/18 04:51:55;;;;;;;42.10;18.92;;;5.50;99.90;;;;;;5034616;28;20182;-66
2021/04/18 04:54:22;;;;;;;41.40;18.92;;;5.50;99.90;;;;;;5035703;28;20586;-67
2021/04/18 04:56:50;;;;;;;37.40;15.93;;;5.50;99.90;;;;;;5033801;28;20196;-66
2021/04/18 04:59:17;;;;;;;34.60;17.48;;;5.50;99.90;;;;;;5035157;28;20260;-67
2021/04/18 05:01:44;;;;;;;28.58;16.23;;;5.60;99.90;;;;;;5035051;28;20177;-67
2021/04/18 05:04:11;;;;;;;30.85;16.90;;;5.70;99.90;;;;;;5034003;28;20190;-67
2021/04/18 05:06:39;;;;;;;40.47;20.42;;;5.70;99.90;;;;;;5035214;28;20189;-67
2021/04/18 05:09:06;;;;;;;45.28;17.95;;;5.50;99.90;;;;;;5035404;28;20197;-66
2021/04/18 05:11:33;;;;;;;42.42;18.10;;;5.60;99.90;;;;;;5034392;28;20170;-67
2021/04/18 05:14:00;;;;;;;34.35;18.33;;;5.70;99.90;;;;;;5034721;28;20178;-67
2021/04/18 05:16:27;;;;;;;30.90;16.48;;;5.60;99.90;;;;;;5050211;28;20208;-67
2021/04/18 05:18:55;;;;;;;30.73;15.75;;;5.70;99.90;;;;;;5035222;28;20205;-66
2021/04/18 05:21:24;;;;;;;42.08;19.45;;;5.70;99.90;;;;;;5034613;28;20197;-67
2021/04/18 05:23:53;;;;;;;30.27;14.23;;;5.70;99.90;;;;;;5034752;28;20190;-65
2021/04/18 05:26:20;;;;;;;43.38;20.67;;;5.80;99.90;;;;;;5034747;28;20181;-66
2021/04/18 05:28:47;;;;;;;31.20;15.10;;;5.70;99.90;;;;;;5034721;28;20218;-66
2021/04/18 05:31:14;;;;;;;27.77;16.05;;;5.80;99.90;;;;;;5033043;28;20189;-68
2021/04/18 05:33:42;;;;;;;47.17;18.40;;;5.80;99.90;;;;;;5034740;28;20614;-65
2021/04/18 05:36:11;;;;;;;35.30;15.80;;;5.90;99.90;;;;;;5035585;28;20208;-67
2021/04/18 05:38:38;;;;;;;37.45;19.23;;;5.90;99.90;;;;;;5035008;28;20224;-67
2021/04/18 05:41:06;;;;;;;34.65;17.30;;;5.90;99.90;;;;;;5035284;28;20578;-67
2021/04/18 05:43:33;;;;;;;34.08;19.63;;;5.90;99.90;;;;;;5035260;28;20656;-65
2021/04/18 05:46:01;;;;;;;33.17;15.10;;;5.80;99.90;;;;;;5034970;28;20177;-66
2021/04/18 05:48:28;;;;;;;31.23;15.02;;;5.90;99.90;;;;;;5034879;28;20315;-66
2021/04/18 05:50:56;;;;;;;26.15;14.85;;;5.90;99.90;;;;;;5035185;28;20174;-66
2021/04/18 05:53:23;;;;;;;30.10;14.90;;;5.90;99.90;;;;;;5034964;28;20185;-66
2021/04/18 05:55:50;;;;;;;33.92;16.50;;;5.90;99.90;;;;;;5035390;28;20192;-66
2021/04/18 05:58:18;;;;;;;38.83;17.33;;;5.90;99.90;;;;;;5035473;28;20212;-66
2021/04/18 06:00:45;;;;;;;35.90;15.18;;;5.80;99.90;;;;;;5035160;28;20196;-65
2021/04/18 06:03:12;;;;;;;31.42;14.65;;;5.90;99.90;;;;;;5038617;28;20181;-65
2021/04/18 06:05:40;;;;;;;35.03;17.10;;;6.00;99.90;;;;;;5039168;28;20255;-67
2021/04/18 06:08:08;;;;;;;32.83;16.25;;;6.00;99.90;;;;;;5039139;28;20213;-67
2021/04/18 06:10:35;;;;;;;27.50;16.65;;;6.00;99.90;;;;;;5039298;28;20547;-67
2021/04/18 06:13:02;;;;;;;33.72;17.85;;;6.00;99.90;;;;;;5039310;28;20182;-66
2021/04/18 06:15:30;;;;;;;35.88;16.80;;;6.00;99.90;;;;;;5039316;28;20197;-66
2021/04/18 06:18:01;;;;;;;47.13;27.70;;;6.00;99.90;;;;;;5039193;28;20296;-67
2021/04/18 06:20:28;;;;;;;28.48;17.90;;;6.00;99.90;;;;;;5060208;22;20228;-67
2021/04/18 06:22:56;;;;;;;37.42;19.90;;;6.00;99.90;;;;;;5057518;28;20181;-66
2021/04/18 06:25:24;;;;;;;41.97;19.90;;;6.00;99.90;;;;;;5057352;28;20549;-66
2021/04/18 06:27:52;;;;;;;43.42;23.73;;;6.00;99.90;;;;;;5057481;28;20215;-66
2021/04/18 06:30:20;;;;;;;35.67;17.00;;;6.10;99.90;;;;;;5075771;28;20236;-67
2021/04/18 06:32:48;;;;;;;34.80;17.40;;;6.00;99.90;;;;;;5076425;28;20636;-66
2021/04/18 06:35:15;;;;;;;38.00;19.85;;;5.90;99.90;;;;;;5075536;28;20180;-67
2021/04/18 06:37:43;;;;;;;42.85;19.95;;;6.00;99.90;;;;;;5074402;28;20303;-67
2021/04/18 06:40:11;;;;;;;40.58;20.30;;;6.10;99.90;;;;;;5074694;28;20659;-67
2021/04/18 06:42:39;;;;;;;39.22;23.27;;;6.20;99.90;;;;;;5074078;28;20203;-67
2021/04/18 06:45:10;;;;;;;39.10;21.13;;;6.20;99.90;;;;;;5056389;28;20195;-66
2021/04/18 06:47:38;;;;;;;26.05;17.30;;;6.20;99.90;;;;;;5073907;28;20211;-67
2021/04/18 06:50:09;;;;;;;30.02;18.65;;;6.10;99.90;;;;;;5074149;28;20187;-67
2021/04/18 06:52:37;;;;;;;38.15;17.27;;;6.00;99.90;;;;;;5074145;28;20603;-66
2021/04/18 06:55:05;;;;;;;34.30;21.13;;;6.00;99.90;;;;;;5075110;28;20168;-68
2021/04/18 06:57:33;;;;;;;41.85;20.27;;;6.00;99.90;;;;;;5073842;28;20295;-66
2021/04/18 07:00:00;;;;;;;28.42;20.08;;;6.00;99.90;;;;;;5073823;28;20176;-67
2021/04/18 07:02:29;;;;;;;32.00;18.13;;;6.10;99.90;;;;;;5073538;28;20184;-66
2021/04/18 07:04:59;;;;;;;33.67;17.10;;;6.10;99.90;;;;;;5073939;28;20525;-67
2021/04/18 07:07:31;;;;;;;31.30;18.35;;;6.20;99.90;;;;;;5056050;28;20220;-68
2021/04/18 07:09:59;;;;;;;39.83;16.35;;;6.30;99.90;;;;;;5073857;28;20255;-67
2021/04/18 07:12:27;;;;;;;41.45;15.07;;;6.30;99.90;;;;;;5073073;28;20271;-68
2021/04/18 07:14:55;;;;;;;34.95;20.08;;;6.30;99.90;;;;;;5072051;28;20184;-67
2021/04/18 07:17:23;;;;;;;29.27;18.52;;;6.20;99.90;;;;;;5073357;28;20278;-67
2021/04/18 07:20:07;;;;;;;34.65;16.58;;;6.20;99.90;;;;;;5073199;28;20172;-67
2021/04/18 07:22:35;;;;;;;22.70;15.50;;;6.20;99.90;;;;;;5072773;28;20172;-67
2021/04/18 07:25:04;;;;;;;35.40;19.75;;;6.20;99.90;;;;;;5054733;28;20206;-67
2021/04/18 07:27:46;;;;;;;22.38;14.43;;;6.30;99.90;;;;;;5072731;28;20282;-67
2021/04/18 07:30:15;;;;;;;29.95;16.77;;;6.20;99.90;;;;;;5073450;28;20514;-66
2021/04/18 07:32:44;;;;;;;40.40;16.73;;;6.20;99.90;;;;;;5074574;28;20192;-66
2021/04/18 07:35:30;;;;;;;30.65;16.77;;;6.30;99.90;;;;;;5073224;28;20200;-66
2021/04/18 07:38:14;;;;;;;30.05;17.77;;;6.30;99.90;;;;;;5072927;28;20247;-67
2021/04/18 07:40:41;;;;;;;27.70;15.32;;;6.40;99.90;;;;;;5072775;28;20230;-67
2021/04/18 07:43:09;;;;;;;38.50;22.00;;;6.40;99.90;;;;;;5072606;28;20172;-68
2021/04/18 07:45:38;;;;;;;39.75;20.42;;;6.50;99.90;;;;;;5072725;28;20176;-67
2021/04/18 07:48:09;;;;;;;32.35;13.32;;;6.60;99.90;;;;;;5073311;28;20240;-67
2021/04/18 07:50:37;;;;;;;29.10;14.93;;;6.60;99.90;;;;;;5056208;28;20268;-68
2021/04/18 07:53:06;;;;;;;30.02;17.45;;;6.70;99.90;;;;;;5035066;28;20189;-66
2021/04/18 07:55:36;;;;;;;25.13;12.82;;;6.70;99.90;;;;;;5052338;28;20193;-67
2021/04/18 07:58:04;;;;;;;21.80;12.70;;;6.60;99.90;;;;;;5052578;28;20243;-67
2021/04/18 08:00:31;;;;;;;25.50;13.32;;;6.50;99.90;;;;;;5053136;28;20287;-67
2021/04/18 08:02:59;;;;;;;22.08;13.05;;;6.40;99.90;;;;;;5035212;28;20191;-66
2021/04/18 08:05:32;;;;;;;22.95;13.57;;;6.50;99.90;;;;;;5052853;28;20189;-66
2021/04/18 08:08:06;;;;;;;16.98;9.75;;;6.40;99.90;;;;;;5052785;28;20200;-67
2021/04/18 08:10:36;;;;;;;18.77;11.27;;;6.30;99.90;;;;;;5052721;28;20177;-68
2021/04/18 08:13:11;;;;;;;17.83;12.10;;;6.20;99.90;;;;;;5054586;28;20180;-68
2021/04/18 08:15:40;;;;;;;14.68;10.55;;;6.20;99.90;;;;;;5053021;28;20598;-66
2021/04/18 08:18:10;;;;;;;23.27;13.07;;;6.20;99.90;;;;;;5052886;28;20291;-66
2021/04/18 08:20:40;;;;;;;23.27;12.70;;;6.10;99.90;;;;;;5052626;28;20563;-67
2021/04/18 08:23:09;;;;;;;18.33;12.07;;;6.10;99.90;;;;;;5052782;28;20193;-66
2021/04/18 08:25:58;;;;;;;18.38;12.02;;;6.10;99.90;;;;;;5052100;28;20216;-68
2021/04/18 08:28:25;;;;;;;22.60;12.48;;;6.20;99.90;;;;;;5052194;28;20216;-69
2021/04/18 08:31:05;;;;;;;14.63;9.52;;;6.20;99.90;;;;;;5034764;28;20594;-66
2021/04/18 08:33:47;;;;;;;16.98;12.30;;;6.20;99.90;;;;;;5053180;28;20252;-68
2021/04/18 08:36:17;;;;;;;16.20;9.38;;;6.20;99.90;;;;;;5052562;28;20579;-67
2021/04/18 08:38:46;;;;;;;13.15;8.75;;;6.30;99.90;;;;;;5034583;28;20270;-67
2021/04/18 08:41:18;;;;;;;15.93;10.18;;;6.50;99.90;;;;;;5034597;28;20259;-68
2021/04/18 08:43:46;;;;;;;58.63;35.72;;;6.60;99.90;;;;;;5052544;28;20540;-68
2021/04/18 08:46:20;;;;;;;27.50;19.02;;;6.70;99.90;;;;;;5052517;28;20242;-66
2021/04/18 08:48:48;;;;;;;21.77;18.67;;;6.70;99.90;;;;;;5053924;28;20239;-66
2021/04/18 08:51:31;;;;;;;14.88;10.95;;;6.70;99.90;;;;;;5055227;28;20181;-68
2021/04/18 08:54:00;;;;;;;18.60;11.63;;;6.70;99.90;;;;;;5055390;28;20200;-67
2021/04/18 08:56:44;;;;;;;16.92;13.27;;;6.70;99.90;;;;;;5055404;28;20185;-67
2021/04/18 08:59:12;;;;;;;15.40;9.50;;;6.80;99.90;;;;;;5054640;28;20176;-67
2021/04/18 09:01:39;;;;;;;13.95;8.32;;;6.90;99.90;;;;;;5055007;28;20181;-67
2021/04/18 09:04:11;;;;;;;15.98;10.60;;;6.90;99.90;;;;;;5055479;28;20183;-66
2021/04/18 09:06:38;;;;;;;20.83;16.58;;;6.80;99.90;;;;;;5055414;28;20605;-67
2021/04/18 09:09:07;;;;;;;16.92;11.10;;;6.80;99.90;;;;;;5054277;28;20213;-67
2021/04/18 09:11:39;;;;;;;17.33;12.43;;;6.70;99.90;;;;;;5054199;28;20223;-67
2021/04/18 09:14:13;;;;;;;16.92;11.25;;;6.60;99.90;;;;;;5034021;28;20563;-67
2021/04/18 09:16:48;;;;;;;15.02;9.90;;;6.60;99.90;;;;;;5051687;28;20192;-67
2021/04/18 09:19:27;;;;;;;15.35;13.73;;;6.60;99.90;;;;;;5033844;28;20197;-68
2021/04/18 09:22:06;;;;;;;14.60;12.73;;;6.60;99.90;;;;;;5031517;28;20212;-68
2021/04/18 09:24:36;;;;;;;10.40;9.38;;;6.60;99.90;;;;;;5031803;28;20256;-67
2021/04/18 09:27:07;;;;;;;13.35;11.00;;;6.70;99.90;;;;;;5031994;28;20550;-67
2021/04/18 09:29:39;;;;;;;14.55;8.32;;;6.60;99.90;;;;;;5031943;28;20202;-68
2021/04/18 09:32:08;;;;;;;16.73;10.00;;;6.70;99.90;;;;;;5051951;28;20715;-67
2021/04/18 09:34:37;;;;;;;12.57;9.25;;;6.60;99.90;;;;;;5051945;28;20677;-66
2021/04/18 09:37:09;;;;;;;11.18;7.93;;;6.60;99.90;;;;;;5051986;28;20212;-67
2021/04/18 09:39:37;;;;;;;14.88;9.40;;;6.60;99.90;;;;;;5053399;28;20169;-67
2021/04/18 09:42:07;;;;;;;13.45;9.77;;;6.60;99.90;;;;;;5054592;28;20185;-66
2021/04/18 09:44:40;;;;;;;15.00;9.52;;;6.70;99.90;;;;;;5058274;28;20219;-68
2021/04/18 09:47:16;;;;;;;15.18;7.88;;;6.90;99.90;;;;;;5059154;28;20205;-66
2021/04/18 09:49:48;;;;;;;14.00;9.00;;;7.20;99.90;;;;;;5057180;28;20215;-66
2021/04/18 09:52:33;;;;;;;16.23;9.90;;;7.60;99.90;;;;;;5057526;28;20207;-66
2021/04/18 09:55:16;;;;;;;16.00;10.98;;;7.90;99.90;;;;;;5057513;28;20273;-66
2021/04/18 09:57:45;;;;;;;11.05;9.68;;;8.40;99.90;;;;;;5039758;28;20281;-67
2021/04/18 10:00:17;;;;;;;10.43;8.25;;;8.50;99.90;;;;;;5053145;28;20181;-67
2021/04/18 10:03:15;;;;;;;13.18;7.32;;;8.80;99.90;;;;;;5033630;28;20236;-66
2021/04/18 10:05:59;;;;;;;10.40;8.35;;;8.90;99.90;;;;;;5051014;28;20227;-67
2021/04/18 10:08:28;;;;;;;11.13;7.45;;;8.80;99.90;;;;;;5050939;28;20215;-68
2021/04/18 10:10:57;;;;;;;12.38;8.75;;;8.80;99.90;;;;;;5051102;28;20177;-68
2021/04/18 10:13:39;;;;;;;12.68;8.48;;;9.00;99.90;;;;;;5052009;28;20174;-67
2021/04/18 10:16:21;;;;;;;14.05;8.15;;;9.00;99.90;;;;;;5049325;28;20208;-67
2021/04/18 10:19:07;;;;;;;12.13;8.75;;;9.00;99.90;;;;;;5032861;28;20217;-67
2021/04/18 10:21:35;;;;;;;12.02;8.40;;;8.90;99.90;;;;;;5050610;28;20189;-67
2021/04/18 10:24:02;;;;;;;10.77;7.95;;;9.10;99.90;;;;;;5050198;28;20263;-67
2021/04/18 10:26:31;;;;;;;10.85;7.93;;;9.20;99.90;;;;;;5051911;28;20177;-67
2021/04/18 10:29:01;;;;;;;11.85;8.77;;;9.00;99.90;;;;;;5050572;28;20704;-67
2021/04/18 10:31:33;;;;;;;12.30;10.40;;;9.10;99.90;;;;;;5043029;28;20199;-69
2021/04/18 10:34:01;;;;;;;12.88;7.43;;;9.20;99.90;;;;;;5044166;28;20185;-68
2021/04/18 10:36:28;;;;;;;11.13;8.30;;;9.80;99.90;;;;;;5045489;28;20199;-67
2021/04/18 10:38:55;;;;;;;13.18;10.38;;;10.50;99.90;;;;;;5032966;28;20209;-66
2021/04/18 10:41:22;;;;;;;11.20;8.95;;;10.60;99.90;;;;;;5050633;28;20193;-66
2021/04/18 10:43:49;;;;;;;9.88;6.90;;;10.60;99.90;;;;;;5050822;28;20181;-68
2021/04/18 10:46:17;;;;;;;8.18;6.97;;;11.00;99.90;;;;;;5052168;28;20209;-68
2021/04/18 10:48:45;;;;;;;9.90;8.63;;;11.50;99.90;;;;;;5036853;28;20213;-67
2021/04/18 10:51:12;;;;;;;10.60;7.97;;;11.70;99.90;;;;;;5055795;28;20188;-69
2021/04/18 10:53:39;;;;;;;8.30;7.50;;;11.60;99.90;;;;;;5056195;28;20527;-67
2021/04/18 10:56:07;;;;;;;10.87;7.40;;;11.80;99.90;;;;;;5038484;28;20246;-67
2021/04/18 10:58:34;;;;;;;13.03;7.97;;;11.80;99.90;;;;;;5056767;28;20422;-67
2021/04/18 11:01:01;;;;;;;10.80;7.80;;;12.10;99.90;;;;;;5039741;28;20557;-69
2021/04/18 11:03:31;;;;;;;13.30;9.17;;;12.20;99.90;;;;;;5057887;28;20472;-67
2021/04/18 11:06:01;;;;;;;10.23;7.83;;;12.10;99.90;;;;;;5057254;28;20390;-68
2021/04/18 11:08:28;;;;;;;7.73;7.00;;;12.00;99.90;;;;;;5040180;28;20437;-67
2021/04/18 11:10:55;;;;;;;10.63;8.30;;;12.20;99.90;;;;;;5051545;28;20415;-68
2021/04/18 11:13:22;;;;;;;10.00;8.30;;;12.30;99.90;;;;;;5051961;28;20439;-69
2021/04/18 11:15:50;;;;;;;10.53;8.57;;;12.10;99.90;;;;;;5055741;28;20753;-69
2021/04/18 11:18:17;;;;;;;10.73;9.30;;;11.90;99.90;;;;;;5057025;28;20462;-68
2021/04/18 11:20:45;;;;;;;20.00;9.60;;;11.70;99.90;;;;;;5057968;28;20437;-68
2021/04/18 11:23:13;;;;;;;8.90;6.97;;;11.80;99.90;;;;;;5057560;28;20406;-68
2021/04/18 11:25:40;;;;;;;13.13;8.63;;;11.60;99.90;;;;;;5058493;28;20442;-69
2021/04/18 11:28:08;;;;;;;17.80;10.60;;;11.40;99.90;;;;;;5038513;28;20463;-67
2021/04/18 11:30:35;;;;;;;14.90;10.30;;;11.20;99.90;;;;;;5058892;28;20437;-67
2021/04/18 11:33:02;;;;;;;10.37;6.77;;;11.20;99.90;;;;;;5059614;28;20403;-68
2021/04/18 11:35:29;;;;;;;24.07;11.63;;;11.10;99.90;;;;;;5058827;28;20430;-68
2021/04/18 11:37:58;;;;;;;11.48;9.70;;;11.10;99.90;;;;;;5041461;28;20460;-69
2021/04/18 11:40:26;;;;;;;12.45;10.43;;;11.20;99.90;;;;;;5059377;28;20177;-69
2021/04/18 11:42:54;;;;;;;15.77;12.70;;;11.40;99.90;;;;;;5058747;28;20668;-68
2021/04/18 11:45:21;;;;;;;14.50;11.53;;;11.40;99.90;;;;;;5059074;28;20398;-70
2021/04/18 11:47:48;;;;;;;19.50;11.47;;;11.30;99.90;;;;;;5040667;28;20457;-68
2021/04/18 11:50:16;;;;;;;15.43;12.00;;;11.20;99.90;;;;;;5059837;28;20447;-67
2021/04/18 11:52:43;;;;;;;12.43;10.05;;;11.10;99.90;;;;;;5062471;28;20385;-68
2021/04/18 11:55:13;;;;;;;10.00;8.93;;;11.20;99.90;;;;;;5066087;28;20192;-68
2021/04/18 11:57:42;;;;;;;13.73;9.80;;;11.60;99.90;;;;;;5064038;28;20221;-67
2021/04/18 12:00:11;;;;;;;14.93;9.30;;;11.90;99.90;;;;;;5057955;28;20408;-69
2021/04/18 12:02:40;;;;;;;11.10;8.90;;;12.10;99.90;;;;;;5040877;28;20410;-69
2021/04/18 12:05:13;;;;;;;13.17;8.40;;;12.80;99.90;;;;;;5059150;28;20428;-68
2021/04/18 12:07:40;;;;;;;9.03;7.90;;;13.20;99.90;;;;;;5058977;28;20414;-67
2021/04/18 12:10:09;;;;;;;12.90;8.83;;;13.10;99.90;;;;;;5038289;28;20533;-66
2021/04/18 12:12:38;;;;;;;12.80;9.17;;;12.60;99.90;;;;;;5052835;28;20427;-68
2021/04/18 12:15:08;;;;;;;11.60;8.00;;;12.40;99.90;;;;;;5053192;28;20930;-68
2021/04/18 12:17:36;;;;;;;13.07;8.60;;;12.40;99.90;;;;;;5054545;28;20847;-68
2021/04/18 12:20:06;;;;;;;10.53;9.30;;;12.40;99.90;;;;;;5052701;22;20454;-66
2021/04/18 12:22:34;;;;;;;9.40;8.30;;;12.80;99.90;;;;;;5072027;28;20422;-66
2021/04/18 12:25:01;;;;;;;10.70;7.70;;;13.20;99.90;;;;;;5034375;28;20423;-67
2021/04/18 12:27:28;;;;;;;9.63;8.60;;;13.20;99.90;;;;;;5052441;28;20966;-66
2021/04/18 12:29:55;;;;;;;8.80;7.93;;;12.80;99.90;;;;;;5034303;28;20971;-66
2021/04/18 12:32:23;;;;;;;10.23;7.93;;;13.00;99.90;;;;;;5035109;28;20944;-67
2021/04/18 12:34:50;;;;;;;12.07;9.50;;;13.10;99.90;;;;;;5052205;28;20432;-65
2021/04/18 12:37:18;;;;;;;8.67;7.83;;;13.20;99.90;;;;;;5052195;28;20458;-65
2021/04/18 12:39:45;;;;;;;11.97;9.43;;;13.50;99.90;;;;;;5052317;28;20398;-66
2021/04/18 12:42:13;;;;;;;10.40;7.53;;;13.40;99.90;;;;;;5052546;28;20420;-67
2021/04/18 12:44:40;;;;;;;10.50;8.57;;;13.40;99.90;;;;;;5052527;28;20386;-66
2021/04/18 12:47:13;;;;;;;8.40;7.47;;;13.20;99.90;;;;;;5051999;28;20414;-65
2021/04/18 12:49:42;;;;;;;10.90;9.30;;;13.20;99.90;;;;;;5051917;28;20509;-68
2021/04/18 12:52:10;;;;;;;8.13;6.83;;;13.30;99.90;;;;;;5052113;28;20919;-66
2021/04/18 12:54:38;;;;;;;8.57;7.67;;;13.40;99.90;;;;;;5052508;28;20916;-65